createdAt,value
2022-08-30T00:01:14.365Z,1.10
2022-08-30T00:03:43.861Z,0.90
2022-08-30T00:06:13.205Z,0.93
2022-08-30T00:08:40.726Z,0.87
2022-08-30T00:11:10.300Z,1.10
2022-08-30T00:13:37.507Z,0.80
2022-08-30T00:16:05.332Z,0.80
2022-08-30T00:18:32.282Z,1.13
2022-08-30T00:20:59.869Z,1.00
2022-08-30T00:23:27.937Z,1.43
2022-08-30T00:25:54.696Z,0.87
2022-08-30T00:28:21.418Z,1.10
2022-08-30T00:30:48.261Z,1.00
2022-08-30T00:33:15.376Z,0.93
2022-08-30T00:35:42.747Z,1.00
2022-08-30T00:38:11.676Z,1.00
2022-08-30T00:40:43.895Z,1.40
2022-08-30T00:43:14.632Z,1.10
2022-08-30T00:45:41.468Z,0.80
2022-08-30T00:48:08.349Z,0.80
2022-08-30T00:50:39.864Z,1.53
2022-08-30T00:53:10.450Z,0.80
2022-08-30T00:55:41.939Z,1.27
2022-08-30T00:58:15.557Z,1.10
2022-08-30T01:00:42.403Z,1.20
2022-08-30T01:03:09.291Z,1.40
2022-08-30T01:05:37.297Z,1.00
2022-08-30T01:08:04.023Z,1.00
2022-08-30T01:10:30.877Z,1.30
2022-08-30T01:12:57.584Z,1.27
2022-08-30T01:15:26.147Z,0.93
2022-08-30T01:17:54.879Z,0.87
2022-08-30T01:20:27.048Z,0.70
2022-08-30T01:23:06.255Z,1.30
2022-08-30T01:25:35.813Z,1.70
2022-08-30T01:28:06.053Z,1.70
2022-08-30T01:30:33.377Z,1.63
2022-08-30T01:33:04.019Z,0.80
2022-08-30T01:35:36.907Z,1.40
2022-08-30T01:38:05.092Z,1.50
2022-08-30T01:40:31.870Z,1.50
2022-08-30T01:42:58.632Z,1.00
2022-08-30T01:45:25.402Z,1.00
2022-08-30T01:47:52.073Z,1.30
2022-08-30T01:50:18.748Z,1.57
2022-08-30T01:52:45.440Z,1.73
2022-08-30T01:55:13.562Z,1.57
2022-08-30T01:57:40.525Z,1.30
2022-08-30T02:00:09.513Z,1.60
2022-08-30T02:02:36.242Z,1.43
2022-08-30T02:05:03.784Z,1.20
2022-08-30T02:07:30.604Z,1.50
2022-08-30T02:09:57.355Z,2.13
2022-08-30T02:12:25.519Z,2.10
2022-08-30T02:14:52.256Z,1.90
2022-08-30T02:17:18.954Z,1.63
2022-08-30T02:19:46.125Z,1.83
2022-08-30T02:22:12.873Z,2.13
2022-08-30T02:24:39.769Z,2.00
2022-08-30T02:27:06.897Z,2.20
2022-08-30T02:29:34.991Z,2.30
2022-08-30T02:32:01.826Z,2.20
2022-08-30T02:34:28.603Z,2.10
2022-08-30T02:36:55.279Z,2.50
2022-08-30T02:39:22.365Z,2.13
2022-08-30T02:41:49.389Z,2.20
2022-08-30T02:44:16.855Z,2.53
2022-08-30T02:46:44.875Z,2.17
2022-08-30T02:51:58.245Z,1.93
2022-08-30T02:54:25.059Z,2.60
2022-08-30T02:56:51.761Z,2.90
2022-08-30T02:59:18.729Z,2.70
2022-08-30T03:01:46.980Z,2.60
2022-08-30T03:04:13.748Z,2.00
2022-08-30T03:06:40.480Z,2.53
2022-08-30T03:09:07.213Z,2.73
2022-08-30T03:11:33.871Z,2.87
2022-08-30T03:14:00.548Z,3.00
2022-08-30T03:16:27.382Z,2.80
2022-08-30T03:18:55.771Z,2.30
2022-08-30T03:21:22.510Z,2.93
2022-08-30T03:23:49.258Z,2.43
2022-08-30T03:26:16.048Z,3.03
2022-08-30T03:28:43.290Z,2.77
2022-08-30T03:31:10.474Z,2.23
2022-08-30T03:33:37.753Z,2.77
2022-08-30T03:36:06.349Z,2.10
2022-08-30T03:38:33.616Z,2.60
2022-08-30T03:41:00.278Z,2.80
2022-08-30T03:43:27.122Z,3.07
2022-08-30T03:45:53.950Z,3.50
2022-08-30T03:48:20.698Z,3.53
2022-08-30T03:50:47.629Z,2.63
2022-08-30T03:53:15.803Z,3.50
2022-08-30T03:55:42.965Z,3.40
2022-08-30T03:58:10.018Z,4.80
2022-08-30T04:00:37.290Z,4.10
2022-08-30T04:03:04.093Z,3.90
2022-08-30T04:05:31.315Z,2.63
2022-08-30T04:07:58.056Z,3.10
2022-08-30T04:10:26.107Z,3.40
2022-08-30T04:12:52.933Z,4.13
2022-08-30T04:15:20.042Z,3.90
2022-08-30T04:17:47.307Z,2.90
2022-08-30T04:20:14.935Z,3.60
2022-08-30T04:22:41.659Z,2.30
2022-08-30T04:25:15.630Z,4.27
2022-08-30T04:27:44.329Z,3.80
2022-08-30T04:30:12.336Z,3.37
2022-08-30T04:32:39.192Z,3.80
2022-08-30T04:35:06.869Z,3.90
2022-08-30T04:37:33.745Z,4.40
2022-08-30T04:40:00.507Z,3.50
2022-08-30T04:42:27.545Z,4.00
2022-08-30T04:44:55.618Z,3.70
2022-08-30T04:47:22.331Z,4.83
2022-08-30T04:49:49.507Z,3.93
2022-08-30T04:52:16.236Z,4.63
2022-08-30T04:54:42.939Z,5.20
2022-08-30T04:57:09.621Z,4.50
2022-08-30T04:59:37.896Z,5.43
2022-08-30T05:02:06.190Z,4.70
2022-08-30T05:04:32.886Z,5.57
2022-08-30T05:06:59.636Z,5.20
2022-08-30T05:09:26.384Z,5.27
2022-08-30T05:11:53.082Z,4.20
2022-08-30T05:14:19.784Z,5.40
2022-08-30T05:16:46.530Z,4.60
2022-08-30T05:19:14.645Z,4.43
2022-08-30T05:21:41.446Z,5.47
2022-08-30T05:24:08.328Z,4.40
2022-08-30T05:26:38.050Z,5.17
2022-08-30T05:29:04.770Z,5.07
2022-08-30T05:31:34.745Z,5.03
2022-08-30T05:34:01.838Z,5.10
2022-08-30T05:36:31.828Z,5.17
2022-08-30T05:38:58.967Z,5.53
2022-08-30T05:41:27.226Z,4.20
2022-08-30T05:43:54.692Z,4.90
2022-08-30T05:46:21.551Z,4.90
2022-08-30T05:48:49.515Z,4.20
2022-08-30T05:51:20.305Z,4.63
2022-08-30T05:53:50.027Z,4.07
2022-08-30T05:56:20.065Z,3.40
2022-08-30T05:58:47.746Z,3.90
2022-08-30T06:01:24.770Z,3.20
2022-08-30T06:03:52.494Z,4.03
2022-08-30T06:06:19.240Z,4.57
2022-08-30T06:08:45.995Z,3.70
2022-08-30T06:11:15.035Z,3.43
2022-08-30T06:13:41.909Z,3.70
2022-08-30T06:16:10.468Z,2.77
2022-08-30T06:18:37.403Z,3.47
2022-08-30T06:21:04.508Z,3.50
2022-08-30T06:23:31.243Z,3.80
2022-08-30T06:26:03.635Z,4.20
2022-08-30T06:28:31.748Z,3.67
2022-08-30T06:30:58.712Z,4.40
2022-08-30T06:33:25.609Z,4.60
2022-08-30T06:35:59.058Z,4.87
2022-08-30T06:38:26.728Z,4.53
2022-08-30T06:40:53.461Z,4.63
2022-08-30T06:43:20.729Z,4.87
2022-08-30T06:45:48.802Z,5.07
2022-08-30T06:48:15.779Z,3.90
2022-08-30T06:50:42.847Z,5.63
2022-08-30T06:53:09.669Z,5.90
2022-08-30T06:55:37.417Z,5.73
2022-08-30T06:58:04.652Z,6.13
2022-08-30T07:00:31.348Z,5.60
2022-08-30T07:02:59.419Z,4.80
2022-08-30T07:05:26.236Z,5.20
2022-08-30T07:07:53.003Z,4.60
2022-08-30T07:10:20.339Z,6.40
2022-08-30T07:12:47.577Z,5.00
2022-08-30T07:15:14.707Z,4.60
2022-08-30T07:17:41.450Z,3.80
2022-08-30T07:20:10.279Z,5.00
2022-08-30T07:22:36.978Z,4.40
2022-08-30T07:25:04.263Z,3.80
2022-08-30T07:27:31.666Z,4.37
2022-08-30T07:29:58.441Z,3.67
2022-08-30T07:32:25.140Z,4.70
2022-08-30T07:34:51.994Z,2.80
2022-08-30T07:37:20.267Z,2.87
2022-08-30T07:39:48.034Z,2.63
2022-08-30T07:42:15.186Z,2.93
2022-08-30T07:44:42.238Z,2.93
2022-08-30T07:47:09.114Z,2.53
2022-08-30T07:49:37.609Z,3.00
2022-08-30T07:52:04.783Z,2.60
2022-08-30T07:54:32.971Z,2.60
2022-08-30T07:56:59.766Z,2.53
2022-08-30T07:59:26.772Z,2.50
2022-08-30T08:01:53.767Z,1.80
2022-08-30T08:04:21.630Z,3.10
2022-08-30T08:06:48.363Z,2.77
2022-08-30T08:09:15.044Z,3.03
2022-08-30T08:11:43.069Z,3.17
2022-08-30T08:14:10.328Z,2.80
2022-08-30T08:16:37.917Z,2.40
2022-08-30T08:19:05.611Z,2.30
2022-08-30T08:21:32.283Z,2.03
2022-08-30T08:23:59.034Z,2.60
2022-08-30T08:26:25.766Z,2.40
2022-08-30T08:28:53.842Z,2.40
2022-08-30T08:31:23.671Z,2.30
2022-08-30T08:33:54.464Z,2.43
2022-08-30T08:36:21.235Z,2.60
2022-08-30T08:38:48.037Z,3.30
2022-08-30T08:41:29.038Z,2.23
2022-08-30T08:43:57.539Z,2.33
2022-08-30T08:46:30.028Z,2.37
2022-08-30T08:49:02.338Z,2.30
2022-08-30T08:51:32.718Z,2.83
2022-08-30T08:54:04.740Z,2.30
2022-08-30T08:56:33.119Z,2.30
2022-08-30T08:59:01.267Z,2.40
2022-08-30T09:01:30.132Z,1.60
2022-08-30T09:03:59.248Z,2.10
2022-08-30T09:06:45.463Z,1.73
2022-08-30T09:09:12.819Z,2.50
2022-08-30T09:11:41.365Z,2.00
2022-08-30T09:14:15.826Z,1.77
2022-08-30T09:16:48.093Z,2.00
2022-08-30T09:19:29.554Z,2.87
2022-08-30T09:22:03.740Z,2.30
2022-08-30T09:24:38.706Z,2.37
2022-08-30T09:27:23.780Z,2.30
2022-08-30T09:29:55.730Z,2.43
2022-08-30T09:32:28.855Z,3.13
2022-08-30T09:34:56.194Z,2.10
2022-08-30T09:37:27.275Z,2.50
2022-08-30T09:39:54.086Z,2.17
2022-08-30T09:42:24.871Z,2.80
2022-08-30T09:44:53.893Z,2.70
2022-08-30T09:47:24.256Z,2.57
2022-08-30T09:50:03.605Z,2.00
2022-08-30T09:52:39.823Z,3.10
2022-08-30T09:55:21.082Z,2.30
2022-08-30T09:57:54.411Z,2.90
2022-08-30T10:00:24.705Z,2.70
2022-08-30T10:03:12.398Z,3.30
2022-08-30T10:05:49.201Z,3.63
2022-08-30T10:08:25.252Z,3.67
2022-08-30T10:10:56.903Z,2.70
2022-08-30T10:13:48.903Z,3.07
2022-08-30T10:16:25.213Z,3.47
2022-08-30T10:19:02.646Z,3.57
2022-08-30T10:21:39.011Z,2.93
2022-08-30T10:24:10.610Z,3.07
2022-08-30T10:26:43.476Z,1.90
2022-08-30T10:29:14.699Z,1.70
2022-08-30T10:31:49.134Z,2.37
2022-08-30T10:34:20.596Z,2.50
2022-08-30T10:36:52.607Z,2.10
2022-08-30T10:39:23.376Z,2.10
2022-08-30T10:41:54.966Z,2.10
2022-08-30T10:44:26.371Z,2.20
2022-08-30T10:47:06.130Z,1.53
2022-08-30T10:49:37.253Z,1.90
2022-08-30T10:52:21.482Z,1.77
2022-08-30T10:54:51.165Z,1.37
2022-08-30T10:57:19.559Z,2.30
2022-08-30T10:59:52.836Z,1.63
2022-08-30T11:03:18.181Z,1.60
2022-08-30T11:06:08.787Z,1.60
2022-08-30T11:08:53.773Z,1.57
2022-08-30T11:11:31.030Z,1.97
2022-08-30T11:14:05.496Z,1.93
2022-08-30T11:16:37.815Z,2.10
2022-08-30T11:19:16.564Z,2.17
2022-08-30T11:21:46.533Z,2.47
2022-08-30T11:24:16.297Z,1.67
2022-08-30T11:27:01.352Z,1.90
2022-08-30T11:29:34.789Z,1.67
2022-08-30T11:32:34.427Z,1.70
2022-08-30T11:35:05.018Z,1.60
2022-08-30T11:37:41.477Z,1.77
2022-08-30T11:40:48.971Z,2.23
2022-08-30T11:43:50.923Z,1.70
2022-08-30T11:46:34.634Z,2.03
2022-08-30T11:49:10.005Z,1.80
2022-08-30T11:55:15.548Z,1.80
2022-08-30T11:57:50.046Z,2.00
2022-08-30T12:00:29.933Z,1.80
2022-08-30T12:03:00.391Z,1.83
2022-08-30T12:05:48.025Z,1.90
2022-08-30T12:08:44.826Z,1.87
2022-08-30T12:11:59.484Z,2.30
2022-08-30T12:14:40.935Z,1.73
2022-08-30T12:17:15.247Z,1.40
2022-08-30T12:19:49.081Z,1.40
2022-08-30T12:22:18.943Z,1.47
2022-08-30T12:24:52.551Z,1.37
2022-08-30T12:27:22.971Z,1.37
2022-08-30T12:29:51.363Z,1.43
2022-08-30T12:32:19.291Z,1.50
2022-08-30T12:34:52.575Z,1.33
2022-08-30T12:37:25.487Z,1.33
2022-08-30T12:40:09.027Z,1.40
2022-08-30T12:42:37.898Z,1.30
2022-08-30T12:45:10.674Z,1.80
2022-08-30T12:47:45.584Z,2.30
2022-08-30T12:50:20.149Z,1.43
2022-08-30T12:52:55.464Z,1.87
2022-08-30T12:55:27.284Z,1.57
2022-08-30T12:58:01.142Z,1.80
2022-08-30T13:00:29.847Z,1.70
2022-08-30T13:02:59.141Z,1.33
2022-08-30T13:05:34.093Z,1.50
2022-08-30T13:08:13.694Z,1.60
2022-08-30T13:10:52.363Z,1.23
2022-08-30T13:13:39.966Z,1.70
2022-08-30T13:16:23.516Z,1.30
2022-08-30T13:18:51.667Z,1.33
2022-08-30T13:21:27.109Z,1.60
2022-08-30T13:23:57.569Z,0.90
2022-08-30T13:26:25.967Z,1.37
2022-08-30T13:28:55.840Z,1.17
2022-08-30T13:31:22.811Z,1.23
2022-08-30T13:33:49.723Z,1.40
2022-08-30T13:36:16.668Z,1.30
2022-08-30T13:38:43.356Z,1.40
2022-08-30T13:41:10.869Z,0.90
2022-08-30T13:46:27.643Z,1.63
2022-08-30T13:48:59.578Z,2.33
2022-08-30T13:51:26.299Z,1.73
2022-08-30T13:53:53.705Z,1.70
2022-08-30T13:56:21.454Z,1.50
2022-08-30T13:58:49.601Z,1.53
2022-08-30T14:01:16.434Z,1.37
2022-08-30T14:06:33.958Z,1.40
2022-08-30T14:09:03.822Z,1.33
2022-08-30T14:11:31.339Z,1.40
2022-08-30T14:14:15.121Z,1.60
2022-08-30T14:16:45.113Z,1.43
2022-08-30T14:19:13.986Z,2.20
2022-08-30T14:21:41.160Z,1.43
2022-08-30T14:24:08.287Z,1.90
2022-08-30T14:26:38.093Z,1.80
2022-08-30T14:29:09.140Z,2.13
2022-08-30T14:31:36.604Z,1.80
2022-08-30T14:34:05.146Z,1.60
2022-08-30T14:36:33.779Z,1.57
2022-08-30T14:39:00.638Z,1.20
2022-08-30T14:41:27.577Z,1.60
2022-08-30T14:43:54.350Z,1.93
2022-08-30T14:46:22.436Z,1.77
2022-08-30T14:48:50.387Z,1.43
2022-08-30T14:51:20.094Z,1.40
2022-08-30T14:53:48.370Z,1.40
2022-08-30T14:56:19.483Z,1.80
2022-08-30T14:58:48.374Z,1.23
2022-08-30T15:01:15.169Z,1.20
2022-08-30T15:03:44.336Z,1.67
2022-08-30T15:06:11.886Z,1.40
2022-08-30T15:08:39.738Z,1.30
2022-08-30T15:11:11.369Z,1.50
2022-08-30T15:13:39.020Z,1.43
2022-08-30T15:16:11.304Z,1.47
2022-08-30T15:18:38.123Z,1.50
2022-08-30T15:21:06.942Z,1.60
2022-08-30T15:23:33.983Z,1.20
2022-08-30T15:26:00.735Z,1.80
2022-08-30T15:28:27.489Z,1.90
2022-08-30T15:30:54.357Z,1.43
2022-08-30T15:33:21.431Z,1.60
2022-08-30T15:35:48.470Z,1.27
2022-08-30T15:38:16.625Z,1.40
2022-08-30T15:40:44.483Z,1.53
2022-08-30T15:43:11.295Z,1.30
2022-08-30T15:45:37.977Z,1.60
2022-08-30T15:48:04.791Z,1.30
2022-08-30T15:50:31.512Z,1.30
2022-08-30T15:52:58.199Z,1.87
2022-08-30T15:55:26.429Z,1.60
2022-08-30T15:57:53.238Z,1.10
2022-08-30T16:00:20.061Z,1.30
2022-08-30T16:02:46.717Z,1.03
2022-08-30T16:05:13.841Z,1.60
2022-08-30T16:07:41.136Z,1.10
2022-08-30T16:10:09.018Z,1.13
2022-08-30T16:12:37.039Z,11.97
2022-08-30T16:15:04.444Z,3.50
2022-08-30T16:17:31.197Z,4.20
2022-08-30T16:19:58.891Z,6.20
2022-08-30T16:22:25.956Z,7.80
2022-08-30T16:24:52.744Z,7.37
2022-08-30T16:27:19.486Z,1.97
2022-08-30T16:29:49.976Z,0.77
2022-08-30T16:32:17.460Z,0.80
2022-08-30T16:34:44.259Z,1.03
2022-08-30T16:37:11.106Z,0.70
2022-08-30T16:39:37.806Z,1.00
2022-08-30T16:42:06.585Z,1.13
2022-08-30T16:44:33.931Z,1.00
2022-08-30T16:47:03.002Z,1.00
2022-08-30T16:49:29.845Z,1.40
2022-08-30T16:51:56.626Z,0.90
2022-08-30T16:54:23.614Z,0.67
2022-08-30T16:56:50.810Z,0.80
2022-08-30T16:59:17.850Z,0.80
2022-08-30T17:01:45.796Z,1.30
2022-08-30T17:04:19.396Z,0.90
2022-08-30T17:06:47.373Z,0.50
2022-08-30T17:09:15.179Z,1.30
2022-08-30T17:11:41.945Z,1.00
2022-08-30T17:14:10.106Z,1.00
2022-08-30T17:16:37.398Z,1.23
2022-08-30T17:19:05.556Z,0.70
2022-08-30T17:21:34.350Z,1.53
2022-08-30T17:24:01.842Z,0.80
2022-08-30T17:26:32.386Z,0.60
2022-08-30T17:28:59.345Z,1.20
2022-08-30T17:31:26.854Z,0.50
2022-08-30T17:34:00.488Z,0.80
2022-08-30T17:36:27.888Z,0.60
2022-08-30T17:38:56.306Z,0.80
2022-08-30T17:41:23.491Z,1.00
2022-08-30T17:43:50.215Z,1.00
2022-08-30T17:46:16.952Z,0.90
2022-08-30T17:48:44.624Z,1.50
2022-08-30T17:51:11.836Z,1.27
2022-08-30T17:53:38.711Z,0.90
2022-08-30T17:56:09.591Z,0.70
2022-08-30T17:58:36.397Z,0.80
2022-08-30T18:01:11.605Z,1.07
2022-08-30T18:03:39.088Z,0.90
2022-08-30T18:06:07.233Z,1.40
2022-08-30T18:08:34.555Z,1.10
2022-08-30T18:11:01.527Z,0.90
2022-08-30T18:13:29.667Z,1.27
2022-08-30T18:15:56.664Z,0.90
2022-08-30T18:18:24.469Z,1.20
2022-08-30T18:20:53.125Z,1.10
2022-08-30T18:23:20.166Z,1.37
2022-08-30T18:25:55.432Z,1.30
2022-08-30T18:28:22.251Z,1.23
2022-08-30T18:30:50.359Z,1.13
2022-08-30T18:33:17.037Z,1.40
2022-08-30T18:35:48.220Z,1.70
2022-08-30T18:38:15.043Z,1.20
2022-08-30T18:40:42.118Z,1.30
2022-08-30T18:43:10.502Z,1.27
2022-08-30T18:45:38.797Z,1.43
2022-08-30T18:48:06.958Z,1.50
2022-08-30T18:50:34.268Z,1.10
2022-08-30T18:53:01.526Z,1.00
2022-08-30T18:55:28.666Z,1.20
2022-08-30T18:57:55.445Z,1.27
2022-08-30T19:00:23.761Z,1.53
2022-08-30T19:02:50.620Z,1.20
2022-08-30T19:05:19.516Z,1.37
2022-08-30T19:07:46.969Z,1.37
2022-08-30T19:10:20.946Z,1.20
2022-08-30T19:12:48.009Z,0.97
2022-08-30T19:15:15.381Z,1.30
2022-08-30T19:17:44.417Z,1.50
2022-08-30T19:20:12.697Z,1.20
2022-08-30T19:23:06.285Z,1.00
2022-08-30T19:25:27.920Z,1.20
2022-08-30T19:27:55.835Z,1.43
2022-08-30T19:30:29.388Z,1.30
2022-08-30T19:32:56.784Z,1.20
2022-08-30T19:35:25.028Z,1.00
2022-08-30T19:37:53.151Z,1.67
2022-08-30T19:40:21.362Z,1.43
2022-08-30T19:42:48.583Z,1.70
2022-08-30T19:45:17.493Z,1.40
2022-08-30T19:47:45.425Z,1.00
2022-08-30T19:50:14.376Z,1.23
2022-08-30T19:52:41.132Z,1.90
2022-08-30T19:55:09.990Z,1.17
2022-08-30T19:57:37.535Z,1.07
2022-08-30T20:00:06.582Z,1.47
2022-08-30T20:02:33.258Z,1.37
2022-08-30T20:05:00.132Z,1.73
2022-08-30T20:07:27.700Z,1.23
2022-08-30T20:09:55.180Z,1.40
2022-08-30T20:12:23.286Z,0.90
2022-08-30T20:14:49.957Z,1.27
2022-08-30T20:17:18.822Z,1.77
2022-08-30T20:19:45.528Z,1.50
2022-08-30T20:22:12.212Z,1.43
2022-08-30T20:24:43.681Z,1.20
2022-08-30T20:27:11.215Z,1.67
2022-08-30T20:29:39.273Z,1.23
2022-08-30T20:32:06.051Z,0.90
2022-08-30T20:34:32.771Z,1.30
2022-08-30T20:36:59.437Z,1.13
2022-08-30T20:39:26.194Z,1.30
2022-08-30T20:41:53.754Z,1.50
2022-08-30T20:44:20.464Z,1.20
2022-08-30T20:46:48.850Z,1.33
2022-08-30T20:49:15.692Z,1.30
2022-08-30T20:51:42.754Z,1.37
2022-08-30T20:54:09.677Z,1.27
2022-08-30T20:56:36.621Z,1.23
2022-08-30T20:59:04.816Z,1.60
2022-08-30T21:01:33.906Z,1.00
2022-08-30T21:04:04.189Z,1.20
2022-08-30T21:06:30.914Z,1.17
2022-08-30T21:08:57.643Z,1.20
2022-08-30T21:11:24.336Z,1.27
2022-08-30T21:13:51.034Z,1.30
2022-08-30T21:16:22.004Z,0.93
2022-08-30T21:18:49.264Z,1.40
2022-08-30T21:21:19.210Z,1.07
2022-08-30T21:23:45.900Z,1.50
2022-08-30T21:26:12.623Z,1.00
2022-08-30T21:28:39.361Z,1.20
2022-08-30T21:31:08.842Z,1.37
2022-08-30T21:33:38.251Z,1.20
2022-08-30T21:36:05.997Z,1.20
2022-08-30T21:38:34.067Z,1.07
2022-08-30T21:41:00.767Z,1.13
2022-08-30T21:43:27.454Z,1.27
2022-08-30T21:45:54.186Z,1.10
2022-08-30T21:48:20.887Z,1.20
2022-08-30T21:50:47.594Z,1.37
2022-08-30T21:53:15.498Z,1.20
2022-08-30T21:55:45.366Z,1.23
2022-08-30T21:58:14.746Z,1.23
2022-08-30T22:00:41.492Z,1.20
2022-08-30T22:03:08.302Z,1.10
2022-08-30T22:05:35.062Z,1.07
2022-08-30T22:08:01.959Z,1.33
2022-08-30T22:10:32.862Z,1.30
2022-08-30T22:13:01.342Z,1.20
2022-08-30T22:15:30.630Z,1.50
2022-08-30T22:17:57.357Z,1.53
2022-08-30T22:20:24.081Z,1.20
2022-08-30T22:22:50.743Z,1.33
2022-08-30T22:25:17.607Z,1.10
2022-08-30T22:27:44.284Z,1.10
2022-08-30T22:30:13.080Z,1.37
2022-08-30T22:32:39.774Z,1.40
2022-08-30T22:35:07.699Z,1.50
2022-08-30T22:37:34.403Z,1.00
2022-08-30T22:40:01.321Z,1.60
2022-08-30T22:42:28.064Z,1.70
2022-08-30T22:44:54.764Z,1.63
2022-08-30T22:47:22.846Z,1.20
2022-08-30T22:49:49.635Z,1.30
2022-08-30T22:52:16.325Z,1.40
2022-08-30T22:54:43.043Z,1.53
2022-08-30T22:57:10.597Z,1.60
2022-08-30T22:59:37.284Z,1.30
2022-08-30T23:02:04.316Z,1.27
2022-08-30T23:04:32.592Z,1.47
2022-08-30T23:06:59.281Z,1.43
2022-08-30T23:09:26.028Z,1.47
2022-08-30T23:11:52.739Z,1.40
2022-08-30T23:14:19.433Z,1.63
2022-08-30T23:16:46.229Z,1.20
2022-08-30T23:19:13.105Z,1.30
2022-08-30T23:21:41.620Z,1.10
2022-08-30T23:24:09.008Z,1.40
2022-08-30T23:26:39.522Z,1.33
2022-08-30T23:29:07.033Z,1.33
2022-08-30T23:31:33.752Z,1.30
2022-08-30T23:34:00.810Z,1.50
2022-08-30T23:36:27.528Z,1.80
2022-08-30T23:38:55.845Z,1.50
2022-08-30T23:41:22.785Z,1.40
2022-08-30T23:44:00.491Z,1.70
2022-08-30T23:46:27.223Z,1.50
2022-08-30T23:48:53.873Z,1.17
2022-08-30T23:51:22.068Z,1.20
2022-08-30T23:53:49.694Z,1.23
2022-08-30T23:56:17.733Z,1.40
2022-08-30T23:58:44.436Z,1.40
